sensor_id;sensor_type;location;lat;lon;timestamp;P1;durP1;ratioP1;P2;durP2;ratioP2
15132;SDS011;7667;51.232;17.110;2024-03-02T00:01:43;41.20;;;22.43;;
15132;SDS011;7667;51.232;17.110;2024-03-02T00:04:12;39.13;;;24.13;;
15132;SDS011;7667;51.232;17.110;2024-03-02T00:06:40;35.03;;;20.27;;
15132;SDS011;7667;51.232;17.110;2024-03-02T00:09:08;42.63;;;21.47;;
15132;SDS011;7667;51.232;17.110;2024-03-02T00:11:39;41.63;;;21.13;;
15132;SDS011;7667;51.232;17.110;2024-03-02T00:14:07;38.00;;;19.93;;
15132;SDS011;7667;51.232;17.110;2024-03-02T00:16:35;39.63;;;21.10;;
15132;SDS011;7667;51.232;17.110;2024-03-02T00:19:05;36.60;;;21.73;;
15132;SDS011;7667;51.232;17.110;2024-03-02T00:21:33;40.67;;;24.17;;
15132;SDS011;7667;51.232;17.110;2024-03-02T00:24:04;38.23;;;21.03;;
15132;SDS011;7667;51.232;17.110;2024-03-02T00:26:43;42.30;;;26.53;;
15132;SDS011;7667;51.232;17.110;2024-03-02T00:29:13;44.27;;;28.27;;
15132;SDS011;7667;51.232;17.110;2024-03-02T00:31:43;41.73;;;26.77;;
15132;SDS011;7667;51.232;17.110;2024-03-02T00:34:11;44.37;;;21.97;;
15132;SDS011;7667;51.232;17.110;2024-03-02T00:36:43;46.67;;;26.57;;
15132;SDS011;7667;51.232;17.110;2024-03-02T00:39:12;44.50;;;26.13;;
15132;SDS011;7667;51.232;17.110;2024-03-02T00:41:41;42.10;;;26.27;;
15132;SDS011;7667;51.232;17.110;2024-03-02T00:44:10;41.37;;;26.07;;
15132;SDS011;7667;51.232;17.110;2024-03-02T00:46:40;43.53;;;24.27;;
15132;SDS011;7667;51.232;17.110;2024-03-02T00:51:51;44.83;;;25.37;;
15132;SDS011;7667;51.232;17.110;2024-03-02T00:54:25;48.33;;;27.13;;
15132;SDS011;7667;51.232;17.110;2024-03-02T00:56:53;43.07;;;29.43;;
15132;SDS011;7667;51.232;17.110;2024-03-02T00:59:23;47.37;;;29.53;;
15132;SDS011;7667;51.232;17.110;2024-03-02T01:01:51;51.30;;;31.50;;
15132;SDS011;7667;51.232;17.110;2024-03-02T01:04:19;47.27;;;30.13;;
15132;SDS011;7667;51.232;17.110;2024-03-02T01:06:47;47.47;;;31.03;;
15132;SDS011;7667;51.232;17.110;2024-03-02T01:09:15;48.63;;;32.50;;
15132;SDS011;7667;51.232;17.110;2024-03-02T01:11:45;47.77;;;31.30;;
15132;SDS011;7667;51.232;17.110;2024-03-02T01:14:13;50.03;;;31.90;;
15132;SDS011;7667;51.232;17.110;2024-03-02T01:16:41;51.53;;;32.23;;
15132;SDS011;7667;51.232;17.110;2024-03-02T01:19:09;52.23;;;32.33;;
15132;SDS011;7667;51.232;17.110;2024-03-02T01:21:37;54.17;;;32.67;;
15132;SDS011;7667;51.232;17.110;2024-03-02T01:24:05;52.97;;;32.60;;
15132;SDS011;7667;51.232;17.110;2024-03-02T01:26:33;51.70;;;32.17;;
15132;SDS011;7667;51.232;17.110;2024-03-02T01:29:01;46.30;;;30.17;;
15132;SDS011;7667;51.232;17.110;2024-03-02T01:31:29;49.33;;;30.57;;
15132;SDS011;7667;51.232;17.110;2024-03-02T01:33:57;46.97;;;29.83;;
15132;SDS011;7667;51.232;17.110;2024-03-02T01:36:25;51.03;;;30.43;;
15132;SDS011;7667;51.232;17.110;2024-03-02T01:38:53;52.20;;;32.23;;
15132;SDS011;7667;51.232;17.110;2024-03-02T01:41:21;49.33;;;31.40;;
15132;SDS011;7667;51.232;17.110;2024-03-02T01:43:49;46.67;;;30.93;;
15132;SDS011;7667;51.232;17.110;2024-03-02T01:46:17;47.50;;;30.30;;
15132;SDS011;7667;51.232;17.110;2024-03-02T01:48:45;46.67;;;31.03;;
15132;SDS011;7667;51.232;17.110;2024-03-02T01:51:13;51.53;;;32.07;;
15132;SDS011;7667;51.232;17.110;2024-03-02T01:53:41;51.63;;;32.63;;
15132;SDS011;7667;51.232;17.110;2024-03-02T01:56:09;51.60;;;31.30;;
15132;SDS011;7667;51.232;17.110;2024-03-02T01:58:37;50.63;;;32.93;;
15132;SDS011;7667;51.232;17.110;2024-03-02T02:01:05;54.03;;;32.27;;
15132;SDS011;7667;51.232;17.110;2024-03-02T02:03:34;52.87;;;33.37;;
15132;SDS011;7667;51.232;17.110;2024-03-02T02:06:02;50.33;;;31.87;;
15132;SDS011;7667;51.232;17.110;2024-03-02T02:08:30;46.83;;;30.23;;
15132;SDS011;7667;51.232;17.110;2024-03-02T02:10:58;52.10;;;31.63;;
15132;SDS011;7667;51.232;17.110;2024-03-02T02:13:26;52.60;;;31.27;;
15132;SDS011;7667;51.232;17.110;2024-03-02T02:15:54;55.00;;;32.43;;
15132;SDS011;7667;51.232;17.110;2024-03-02T02:18:22;44.27;;;28.73;;
15132;SDS011;7667;51.232;17.110;2024-03-02T02:20:51;48.17;;;31.13;;
15132;SDS011;7667;51.232;17.110;2024-03-02T02:23:19;45.10;;;29.47;;
15132;SDS011;7667;51.232;17.110;2024-03-02T02:25:47;48.10;;;30.20;;
15132;SDS011;7667;51.232;17.110;2024-03-02T02:28:15;49.90;;;30.83;;
15132;SDS011;7667;51.232;17.110;2024-03-02T02:30:43;49.83;;;31.20;;
15132;SDS011;7667;51.232;17.110;2024-03-02T02:33:11;50.53;;;30.83;;
15132;SDS011;7667;51.232;17.110;2024-03-02T02:35:39;44.17;;;30.17;;
15132;SDS011;7667;51.232;17.110;2024-03-02T02:38:07;46.03;;;29.37;;
15132;SDS011;7667;51.232;17.110;2024-03-02T02:40:35;47.90;;;30.80;;
15132;SDS011;7667;51.232;17.110;2024-03-02T02:43:03;50.33;;;30.73;;
15132;SDS011;7667;51.232;17.110;2024-03-02T02:45:31;48.93;;;29.50;;
15132;SDS011;7667;51.232;17.110;2024-03-02T02:48:00;45.83;;;29.27;;
15132;SDS011;7667;51.232;17.110;2024-03-02T02:50:29;45.20;;;28.53;;
15132;SDS011;7667;51.232;17.110;2024-03-02T02:52:57;46.67;;;29.30;;
15132;SDS011;7667;51.232;17.110;2024-03-02T02:55:25;47.47;;;28.67;;
15132;SDS011;7667;51.232;17.110;2024-03-02T02:57:53;45.43;;;29.13;;
15132;SDS011;7667;51.232;17.110;2024-03-02T03:00:21;45.40;;;29.37;;
15132;SDS011;7667;51.232;17.110;2024-03-02T03:02:49;44.80;;;28.83;;
15132;SDS011;7667;51.232;17.110;2024-03-02T03:05:17;48.57;;;31.03;;
15132;SDS011;7667;51.232;17.110;2024-03-02T03:07:46;47.00;;;30.03;;
15132;SDS011;7667;51.232;17.110;2024-03-02T03:10:17;45.70;;;31.23;;
15132;SDS011;7667;51.232;17.110;2024-03-02T03:12:45;41.33;;;29.03;;
15132;SDS011;7667;51.232;17.110;2024-03-02T03:15:13;45.67;;;29.27;;
15132;SDS011;7667;51.232;17.110;2024-03-02T03:17:43;42.87;;;28.30;;
15132;SDS011;7667;51.232;17.110;2024-03-02T03:20:13;49.67;;;31.37;;
15132;SDS011;7667;51.232;17.110;2024-03-02T03:22:42;47.20;;;30.53;;
15132;SDS011;7667;51.232;17.110;2024-03-02T03:25:10;44.80;;;30.83;;
15132;SDS011;7667;51.232;17.110;2024-03-02T03:27:37;43.87;;;28.70;;
15132;SDS011;7667;51.232;17.110;2024-03-02T03:30:05;45.03;;;30.87;;
15132;SDS011;7667;51.232;17.110;2024-03-02T03:32:34;48.47;;;30.23;;
15132;SDS011;7667;51.232;17.110;2024-03-02T03:35:02;45.30;;;29.73;;
15132;SDS011;7667;51.232;17.110;2024-03-02T03:37:30;47.60;;;32.27;;
15132;SDS011;7667;51.232;17.110;2024-03-02T03:40:04;51.90;;;35.10;;
15132;SDS011;7667;51.232;17.110;2024-03-02T03:42:37;56.20;;;36.57;;
15132;SDS011;7667;51.232;17.110;2024-03-02T03:45:06;51.00;;;34.77;;
15132;SDS011;7667;51.232;17.110;2024-03-02T03:47:34;51.13;;;33.37;;
15132;SDS011;7667;51.232;17.110;2024-03-02T03:50:03;46.87;;;31.73;;
15132;SDS011;7667;51.232;17.110;2024-03-02T03:52:34;45.87;;;30.70;;
15132;SDS011;7667;51.232;17.110;2024-03-02T03:55:02;48.30;;;31.67;;
15132;SDS011;7667;51.232;17.110;2024-03-02T03:57:32;45.47;;;30.70;;
15132;SDS011;7667;51.232;17.110;2024-03-02T04:00:00;49.03;;;30.97;;
15132;SDS011;7667;51.232;17.110;2024-03-02T04:02:29;46.57;;;31.10;;
15132;SDS011;7667;51.232;17.110;2024-03-02T04:04:56;41.23;;;28.10;;
15132;SDS011;7667;51.232;17.110;2024-03-02T04:07:24;41.67;;;28.30;;
15132;SDS011;7667;51.232;17.110;2024-03-02T04:09:53;37.97;;;25.70;;
15132;SDS011;7667;51.232;17.110;2024-03-02T04:12:21;40.90;;;27.47;;
15132;SDS011;7667;51.232;17.110;2024-03-02T04:14:49;46.27;;;28.73;;
15132;SDS011;7667;51.232;17.110;2024-03-02T04:17:17;43.13;;;27.67;;
15132;SDS011;7667;51.232;17.110;2024-03-02T04:19:45;44.60;;;28.97;;
15132;SDS011;7667;51.232;17.110;2024-03-02T04:22:13;42.47;;;27.83;;
15132;SDS011;7667;51.232;17.110;2024-03-02T04:24:50;42.93;;;27.70;;
15132;SDS011;7667;51.232;17.110;2024-03-02T04:27:19;42.87;;;27.67;;
15132;SDS011;7667;51.232;17.110;2024-03-02T04:29:47;42.30;;;25.67;;
15132;SDS011;7667;51.232;17.110;2024-03-02T04:32:15;40.60;;;26.13;;
15132;SDS011;7667;51.232;17.110;2024-03-02T04:34:43;42.37;;;26.20;;
15132;SDS011;7667;51.232;17.110;2024-03-02T04:37:11;40.43;;;27.33;;
15132;SDS011;7667;51.232;17.110;2024-03-02T04:39:39;40.73;;;26.13;;
15132;SDS011;7667;51.232;17.110;2024-03-02T04:42:07;39.90;;;26.63;;
15132;SDS011;7667;51.232;17.110;2024-03-02T04:44:35;43.03;;;28.07;;
15132;SDS011;7667;51.232;17.110;2024-03-02T04:47:05;43.27;;;28.07;;
15132;SDS011;7667;51.232;17.110;2024-03-02T04:49:33;46.17;;;29.10;;
15132;SDS011;7667;51.232;17.110;2024-03-02T04:52:01;42.27;;;28.30;;
15132;SDS011;7667;51.232;17.110;2024-03-02T04:54:29;43.77;;;30.33;;
15132;SDS011;7667;51.232;17.110;2024-03-02T04:56:57;47.23;;;30.77;;
15132;SDS011;7667;51.232;17.110;2024-03-02T04:59:25;42.40;;;28.37;;
15132;SDS011;7667;51.232;17.110;2024-03-02T05:01:53;44.30;;;28.73;;
15132;SDS011;7667;51.232;17.110;2024-03-02T05:04:20;43.10;;;28.63;;
15132;SDS011;7667;51.232;17.110;2024-03-02T05:06:48;39.17;;;28.03;;
15132;SDS011;7667;51.232;17.110;2024-03-02T05:09:19;43.07;;;29.10;;
15132;SDS011;7667;51.232;17.110;2024-03-02T05:11:47;39.53;;;27.63;;
15132;SDS011;7667;51.232;17.110;2024-03-02T05:14:33;42.10;;;28.73;;
15132;SDS011;7667;51.232;17.110;2024-03-02T05:17:01;40.30;;;27.23;;
15132;SDS011;7667;51.232;17.110;2024-03-02T05:19:29;46.73;;;29.23;;
15132;SDS011;7667;51.232;17.110;2024-03-02T05:21:57;42.67;;;28.10;;
15132;SDS011;7667;51.232;17.110;2024-03-02T05:24:25;36.33;;;25.80;;
15132;SDS011;7667;51.232;17.110;2024-03-02T05:26:55;39.27;;;26.77;;
15132;SDS011;7667;51.232;17.110;2024-03-02T05:29:23;42.13;;;27.60;;
15132;SDS011;7667;51.232;17.110;2024-03-02T05:31:51;40.33;;;28.67;;
15132;SDS011;7667;51.232;17.110;2024-03-02T05:34:19;41.30;;;29.40;;
15132;SDS011;7667;51.232;17.110;2024-03-02T05:36:47;62.00;;;37.83;;
15132;SDS011;7667;51.232;17.110;2024-03-02T05:39:15;51.57;;;32.93;;
15132;SDS011;7667;51.232;17.110;2024-03-02T05:41:43;46.03;;;29.40;;
15132;SDS011;7667;51.232;17.110;2024-03-02T05:44:11;44.40;;;29.03;;
15132;SDS011;7667;51.232;17.110;2024-03-02T05:46:39;42.73;;;29.40;;
15132;SDS011;7667;51.232;17.110;2024-03-02T05:49:07;43.87;;;29.20;;
15132;SDS011;7667;51.232;17.110;2024-03-02T05:51:35;42.83;;;29.87;;
15132;SDS011;7667;51.232;17.110;2024-03-02T05:54:02;41.73;;;28.47;;
15132;SDS011;7667;51.232;17.110;2024-03-02T05:56:30;38.27;;;26.43;;
15132;SDS011;7667;51.232;17.110;2024-03-02T05:58:58;40.27;;;27.57;;
15132;SDS011;7667;51.232;17.110;2024-03-02T06:01:40;40.77;;;27.50;;
15132;SDS011;7667;51.232;17.110;2024-03-02T06:04:11;38.53;;;25.90;;
15132;SDS011;7667;51.232;17.110;2024-03-02T06:06:40;38.40;;;25.57;;
15132;SDS011;7667;51.232;17.110;2024-03-02T06:09:08;40.50;;;27.13;;
15132;SDS011;7667;51.232;17.110;2024-03-02T06:11:39;38.33;;;26.90;;
15132;SDS011;7667;51.232;17.110;2024-03-02T06:14:08;41.27;;;27.13;;
15132;SDS011;7667;51.232;17.110;2024-03-02T06:16:36;39.43;;;28.27;;
15132;SDS011;7667;51.232;17.110;2024-03-02T06:19:03;41.20;;;27.27;;
15132;SDS011;7667;51.232;17.110;2024-03-02T06:21:31;41.53;;;26.07;;
15132;SDS011;7667;51.232;17.110;2024-03-02T06:23:58;39.83;;;26.50;;
15132;SDS011;7667;51.232;17.110;2024-03-02T06:26:27;41.93;;;26.90;;
15132;SDS011;7667;51.232;17.110;2024-03-02T06:28:56;41.90;;;26.73;;
15132;SDS011;7667;51.232;17.110;2024-03-02T06:31:24;43.20;;;27.60;;
15132;SDS011;7667;51.232;17.110;2024-03-02T06:33:52;40.20;;;26.53;;
15132;SDS011;7667;51.232;17.110;2024-03-02T06:36:19;42.63;;;27.13;;
15132;SDS011;7667;51.232;17.110;2024-03-02T06:38:47;38.53;;;25.23;;
15132;SDS011;7667;51.232;17.110;2024-03-02T06:41:14;37.07;;;24.83;;
15132;SDS011;7667;51.232;17.110;2024-03-02T06:43:42;41.43;;;26.67;;
15132;SDS011;7667;51.232;17.110;2024-03-02T06:46:10;37.00;;;24.47;;
15132;SDS011;7667;51.232;17.110;2024-03-02T06:48:41;40.07;;;26.43;;
15132;SDS011;7667;51.232;17.110;2024-03-02T06:51:09;40.57;;;26.63;;
15132;SDS011;7667;51.232;17.110;2024-03-02T06:53:37;42.17;;;26.27;;
15132;SDS011;7667;51.232;17.110;2024-03-02T06:56:06;38.70;;;26.30;;
15132;SDS011;7667;51.232;17.110;2024-03-02T06:58:34;46.27;;;30.47;;
15132;SDS011;7667;51.232;17.110;2024-03-02T07:01:02;53.60;;;31.43;;
15132;SDS011;7667;51.232;17.110;2024-03-02T07:03:30;44.87;;;27.90;;
15132;SDS011;7667;51.232;17.110;2024-03-02T07:05:57;40.30;;;27.77;;
15132;SDS011;7667;51.232;17.110;2024-03-02T07:08:25;38.57;;;26.13;;
15132;SDS011;7667;51.232;17.110;2024-03-02T07:10:53;41.33;;;27.73;;
15132;SDS011;7667;51.232;17.110;2024-03-02T07:13:21;42.73;;;27.20;;
15132;SDS011;7667;51.232;17.110;2024-03-02T07:15:48;45.10;;;27.03;;
15132;SDS011;7667;51.232;17.110;2024-03-02T07:18:34;46.20;;;29.63;;
15132;SDS011;7667;51.232;17.110;2024-03-02T07:21:07;38.33;;;26.57;;
15132;SDS011;7667;51.232;17.110;2024-03-02T07:23:35;41.23;;;26.30;;
15132;SDS011;7667;51.232;17.110;2024-03-02T07:26:03;40.37;;;26.77;;
15132;SDS011;7667;51.232;17.110;2024-03-02T07:28:33;41.30;;;26.57;;
15132;SDS011;7667;51.232;17.110;2024-03-02T07:31:01;39.03;;;27.13;;
15132;SDS011;7667;51.232;17.110;2024-03-02T07:33:31;37.33;;;26.30;;
15132;SDS011;7667;51.232;17.110;2024-03-02T07:36:00;41.63;;;26.70;;
15132;SDS011;7667;51.232;17.110;2024-03-02T07:38:31;48.57;;;31.10;;
15132;SDS011;7667;51.232;17.110;2024-03-02T07:41:01;45.40;;;27.00;;
15132;SDS011;7667;51.232;17.110;2024-03-02T07:43:29;55.10;;;33.60;;
15132;SDS011;7667;51.232;17.110;2024-03-02T07:45:59;50.73;;;26.47;;
15132;SDS011;7667;51.232;17.110;2024-03-02T07:48:27;43.37;;;28.23;;
15132;SDS011;7667;51.232;17.110;2024-03-02T07:50:55;47.33;;;31.23;;
15132;SDS011;7667;51.232;17.110;2024-03-02T07:53:22;45.80;;;28.23;;
15132;SDS011;7667;51.232;17.110;2024-03-02T07:55:50;40.10;;;26.73;;
15132;SDS011;7667;51.232;17.110;2024-03-02T07:58:18;45.63;;;27.73;;
15132;SDS011;7667;51.232;17.110;2024-03-02T08:00:46;45.37;;;27.33;;
15132;SDS011;7667;51.232;17.110;2024-03-02T08:03:15;40.83;;;27.63;;
15132;SDS011;7667;51.232;17.110;2024-03-02T08:05:43;43.77;;;27.83;;
15132;SDS011;7667;51.232;17.110;2024-03-02T08:08:11;36.83;;;23.87;;
15132;SDS011;7667;51.232;17.110;2024-03-02T08:10:39;36.03;;;24.10;;
15132;SDS011;7667;51.232;17.110;2024-03-02T08:13:06;37.90;;;24.83;;
15132;SDS011;7667;51.232;17.110;2024-03-02T08:15:34;45.23;;;22.70;;
15132;SDS011;7667;51.232;17.110;2024-03-02T08:18:01;39.03;;;19.47;;
15132;SDS011;7667;51.232;17.110;2024-03-02T08:20:29;32.87;;;18.57;;
15132;SDS011;7667;51.232;17.110;2024-03-02T08:22:58;32.80;;;19.60;;
15132;SDS011;7667;51.232;17.110;2024-03-02T08:25:26;39.17;;;19.77;;
15132;SDS011;7667;51.232;17.110;2024-03-02T08:27:53;37.00;;;18.73;;
15132;SDS011;7667;51.232;17.110;2024-03-02T08:30:21;35.23;;;19.43;;
15132;SDS011;7667;51.232;17.110;2024-03-02T08:32:49;35.07;;;19.90;;
15132;SDS011;7667;51.232;17.110;2024-03-02T08:35:17;38.10;;;18.27;;
15132;SDS011;7667;51.232;17.110;2024-03-02T08:37:45;37.93;;;20.90;;
15132;SDS011;7667;51.232;17.110;2024-03-02T08:40:13;39.37;;;18.77;;
15132;SDS011;7667;51.232;17.110;2024-03-02T08:42:44;35.80;;;19.60;;
15132;SDS011;7667;51.232;17.110;2024-03-02T08:45:13;36.73;;;18.80;;
15132;SDS011;7667;51.232;17.110;2024-03-02T08:47:41;44.80;;;21.43;;
15132;SDS011;7667;51.232;17.110;2024-03-02T08:50:10;44.03;;;22.83;;
15132;SDS011;7667;51.232;17.110;2024-03-02T08:52:38;34.17;;;19.90;;
15132;SDS011;7667;51.232;17.110;2024-03-02T08:55:06;33.43;;;18.33;;
15132;SDS011;7667;51.232;17.110;2024-03-02T08:57:34;36.73;;;19.23;;
15132;SDS011;7667;51.232;17.110;2024-03-02T09:00:03;33.87;;;18.77;;
15132;SDS011;7667;51.232;17.110;2024-03-02T09:02:32;34.80;;;18.30;;
15132;SDS011;7667;51.232;17.110;2024-03-02T09:04:59;34.40;;;18.43;;
15132;SDS011;7667;51.232;17.110;2024-03-02T09:07:27;32.53;;;18.00;;
15132;SDS011;7667;51.232;17.110;2024-03-02T09:09:55;35.07;;;17.97;;
15132;SDS011;7667;51.232;17.110;2024-03-02T09:12:23;27.97;;;16.77;;
15132;SDS011;7667;51.232;17.110;2024-03-02T09:14:51;30.30;;;17.13;;
15132;SDS011;7667;51.232;17.110;2024-03-02T09:17:19;31.43;;;15.97;;
15132;SDS011;7667;51.232;17.110;2024-03-02T09:19:47;34.53;;;18.70;;
15132;SDS011;7667;51.232;17.110;2024-03-02T09:22:15;35.77;;;18.40;;
15132;SDS011;7667;51.232;17.110;2024-03-02T09:24:43;31.90;;;17.60;;
15132;SDS011;7667;51.232;17.110;2024-03-02T09:27:11;32.17;;;17.03;;
15132;SDS011;7667;51.232;17.110;2024-03-02T09:29:39;31.93;;;16.70;;
15132;SDS011;7667;51.232;17.110;2024-03-02T09:32:07;27.27;;;15.83;;
15132;SDS011;7667;51.232;17.110;2024-03-02T09:34:38;28.53;;;14.83;;
15132;SDS011;7667;51.232;17.110;2024-03-02T09:37:07;26.30;;;15.80;;
15132;SDS011;7667;51.232;17.110;2024-03-02T09:39:35;25.97;;;15.20;;
15132;SDS011;7667;51.232;17.110;2024-03-02T09:42:03;29.43;;;14.80;;
15132;SDS011;7667;51.232;17.110;2024-03-02T09:44:32;26.97;;;14.37;;
15132;SDS011;7667;51.232;17.110;2024-03-02T09:47:00;25.77;;;14.80;;
15132;SDS011;7667;51.232;17.110;2024-03-02T09:49:28;26.60;;;15.10;;
15132;SDS011;7667;51.232;17.110;2024-03-02T09:51:56;26.73;;;15.33;;
15132;SDS011;7667;51.232;17.110;2024-03-02T09:54:25;30.13;;;15.90;;
15132;SDS011;7667;51.232;17.110;2024-03-02T09:56:53;27.77;;;15.83;;
15132;SDS011;7667;51.232;17.110;2024-03-02T09:59:21;27.53;;;14.47;;
15132;SDS011;7667;51.232;17.110;2024-03-02T10:01:57;26.83;;;14.80;;
15132;SDS011;7667;51.232;17.110;2024-03-02T10:04:27;26.47;;;14.37;;
15132;SDS011;7667;51.232;17.110;2024-03-02T10:07:15;24.50;;;13.93;;
15132;SDS011;7667;51.232;17.110;2024-03-02T10:09:44;21.73;;;14.17;;
15132;SDS011;7667;51.232;17.110;2024-03-02T10:12:14;27.80;;;15.27;;
15132;SDS011;7667;51.232;17.110;2024-03-02T10:14:43;28.03;;;15.63;;
15132;SDS011;7667;51.232;17.110;2024-03-02T10:17:12;27.10;;;15.40;;
15132;SDS011;7667;51.232;17.110;2024-03-02T10:19:42;24.53;;;14.23;;
15132;SDS011;7667;51.232;17.110;2024-03-02T10:22:10;26.60;;;15.90;;
15132;SDS011;7667;51.232;17.110;2024-03-02T10:24:39;26.77;;;14.93;;
15132;SDS011;7667;51.232;17.110;2024-03-02T10:27:33;26.00;;;14.80;;
15132;SDS011;7667;51.232;17.110;2024-03-02T10:30:02;21.83;;;13.23;;
15132;SDS011;7667;51.232;17.110;2024-03-02T10:32:32;24.63;;;13.47;;
15132;SDS011;7667;51.232;17.110;2024-03-02T10:35:00;22.83;;;13.50;;
15132;SDS011;7667;51.232;17.110;2024-03-02T10:37:30;20.70;;;12.90;;
15132;SDS011;7667;51.232;17.110;2024-03-02T10:40:04;21.27;;;12.33;;
15132;SDS011;7667;51.232;17.110;2024-03-02T10:42:32;20.10;;;12.27;;
15132;SDS011;7667;51.232;17.110;2024-03-02T10:45:00;22.37;;;13.30;;
15132;SDS011;7667;51.232;17.110;2024-03-02T10:47:28;21.67;;;12.53;;
15132;SDS011;7667;51.232;17.110;2024-03-02T10:49:58;20.43;;;12.40;;
15132;SDS011;7667;51.232;17.110;2024-03-02T10:52:27;20.17;;;11.70;;
15132;SDS011;7667;51.232;17.110;2024-03-02T10:54:55;19.73;;;11.73;;
15132;SDS011;7667;51.232;17.110;2024-03-02T10:57:23;20.37;;;13.67;;
15132;SDS011;7667;51.232;17.110;2024-03-02T10:59:57;19.97;;;12.30;;
15132;SDS011;7667;51.232;17.110;2024-03-02T11:02:30;20.13;;;12.30;;
15132;SDS011;7667;51.232;17.110;2024-03-02T11:04:59;19.57;;;12.23;;
15132;SDS011;7667;51.232;17.110;2024-03-02T11:07:27;20.27;;;11.70;;
15132;SDS011;7667;51.232;17.110;2024-03-02T11:10:00;21.13;;;12.23;;
15132;SDS011;7667;51.232;17.110;2024-03-02T11:12:36;21.73;;;12.07;;
15132;SDS011;7667;51.232;17.110;2024-03-02T11:15:09;21.53;;;12.53;;
15132;SDS011;7667;51.232;17.110;2024-03-02T11:17:38;19.77;;;12.00;;
15132;SDS011;7667;51.232;17.110;2024-03-02T11:20:08;18.07;;;11.67;;
15132;SDS011;7667;51.232;17.110;2024-03-02T11:22:36;20.17;;;12.13;;
15132;SDS011;7667;51.232;17.110;2024-03-02T11:25:04;19.40;;;13.90;;
15132;SDS011;7667;51.232;17.110;2024-03-02T11:33:05;20.63;;;12.40;;
15132;SDS011;7667;51.232;17.110;2024-03-02T11:35:42;20.40;;;12.30;;
15132;SDS011;7667;51.232;17.110;2024-03-02T11:38:15;21.53;;;12.67;;
15132;SDS011;7667;51.232;17.110;2024-03-02T11:40:44;25.07;;;13.77;;
15132;SDS011;7667;51.232;17.110;2024-03-02T11:43:12;28.10;;;13.63;;
15132;SDS011;7667;51.232;17.110;2024-03-02T11:45:41;24.13;;;13.30;;
15132;SDS011;7667;51.232;17.110;2024-03-02T11:48:13;20.40;;;11.77;;
15132;SDS011;7667;51.232;17.110;2024-03-02T11:50:46;23.63;;;13.03;;
15132;SDS011;7667;51.232;17.110;2024-03-02T11:53:17;20.53;;;12.10;;
15132;SDS011;7667;51.232;17.110;2024-03-02T11:55:46;20.77;;;12.70;;
15132;SDS011;7667;51.232;17.110;2024-03-02T11:58:14;27.53;;;13.10;;
15132;SDS011;7667;51.232;17.110;2024-03-02T12:00:51;21.77;;;12.63;;
15132;SDS011;7667;51.232;17.110;2024-03-02T12:03:23;20.33;;;12.47;;
15132;SDS011;7667;51.232;17.110;2024-03-02T12:05:53;19.00;;;12.53;;
15132;SDS011;7667;51.232;17.110;2024-03-02T12:08:21;20.97;;;12.17;;
15132;SDS011;7667;51.232;17.110;2024-03-02T12:10:57;17.50;;;10.87;;
15132;SDS011;7667;51.232;17.110;2024-03-02T12:13:28;18.80;;;11.50;;
15132;SDS011;7667;51.232;17.110;2024-03-02T12:15:56;15.77;;;10.00;;
15132;SDS011;7667;51.232;17.110;2024-03-02T12:18:25;21.57;;;11.77;;
15132;SDS011;7667;51.232;17.110;2024-03-02T12:20:53;26.27;;;14.20;;
15132;SDS011;7667;51.232;17.110;2024-03-02T12:23:25;29.23;;;14.30;;
15132;SDS011;7667;51.232;17.110;2024-03-02T12:25:53;18.93;;;10.43;;
15132;SDS011;7667;51.232;17.110;2024-03-02T12:28:22;16.03;;;9.17;;
15132;SDS011;7667;51.232;17.110;2024-03-02T12:30:50;16.53;;;8.70;;
15132;SDS011;7667;51.232;17.110;2024-03-02T12:33:18;15.63;;;9.20;;
15132;SDS011;7667;51.232;17.110;2024-03-02T12:35:48;15.87;;;10.13;;
15132;SDS011;7667;51.232;17.110;2024-03-02T12:38:16;13.50;;;9.07;;
15132;SDS011;7667;51.232;17.110;2024-03-02T12:40:45;15.17;;;9.40;;
15132;SDS011;7667;51.232;17.110;2024-03-02T12:43:16;17.40;;;9.80;;
15132;SDS011;7667;51.232;17.110;2024-03-02T12:45:44;15.77;;;9.60;;
15132;SDS011;7667;51.232;17.110;2024-03-02T12:48:13;15.13;;;9.40;;
15132;SDS011;7667;51.232;17.110;2024-03-02T12:50:41;14.73;;;9.23;;
15132;SDS011;7667;51.232;17.110;2024-03-02T12:53:13;20.60;;;11.23;;
15132;SDS011;7667;51.232;17.110;2024-03-02T12:55:43;16.00;;;9.90;;
15132;SDS011;7667;51.232;17.110;2024-03-02T12:58:18;20.77;;;11.40;;
15132;SDS011;7667;51.232;17.110;2024-03-02T13:00:48;17.07;;;10.57;;
15132;SDS011;7667;51.232;17.110;2024-03-02T13:03:17;14.90;;;9.93;;
15132;SDS011;7667;51.232;17.110;2024-03-02T13:05:49;19.07;;;10.27;;
15132;SDS011;7667;51.232;17.110;2024-03-02T13:08:17;19.47;;;11.13;;
15132;SDS011;7667;51.232;17.110;2024-03-02T13:10:45;18.37;;;11.27;;
15132;SDS011;7667;51.232;17.110;2024-03-02T13:13:13;19.13;;;11.27;;
15132;SDS011;7667;51.232;17.110;2024-03-02T13:15:41;19.70;;;12.03;;
15132;SDS011;7667;51.232;17.110;2024-03-02T13:18:10;17.77;;;10.23;;
15132;SDS011;7667;51.232;17.110;2024-03-02T13:20:38;16.10;;;9.57;;
15132;SDS011;7667;51.232;17.110;2024-03-02T13:23:06;16.37;;;9.60;;
15132;SDS011;7667;51.232;17.110;2024-03-02T13:25:34;14.73;;;9.33;;
15132;SDS011;7667;51.232;17.110;2024-03-02T13:28:02;17.13;;;9.47;;
15132;SDS011;7667;51.232;17.110;2024-03-02T13:30:30;18.10;;;9.07;;
15132;SDS011;7667;51.232;17.110;2024-03-02T13:32:59;14.40;;;7.93;;
15132;SDS011;7667;51.232;17.110;2024-03-02T13:35:27;17.07;;;8.73;;
15132;SDS011;7667;51.232;17.110;2024-03-02T13:37:55;12.80;;;7.73;;
15132;SDS011;7667;51.232;17.110;2024-03-02T13:40:23;11.20;;;7.23;;
15132;SDS011;7667;51.232;17.110;2024-03-02T13:42:51;13.77;;;8.13;;
15132;SDS011;7667;51.232;17.110;2024-03-02T13:45:20;15.93;;;8.73;;
15132;SDS011;7667;51.232;17.110;2024-03-02T13:47:48;15.77;;;9.07;;
15132;SDS011;7667;51.232;17.110;2024-03-02T13:50:16;13.83;;;9.00;;
15132;SDS011;7667;51.232;17.110;2024-03-02T13:52:44;14.40;;;7.63;;
15132;SDS011;7667;51.232;17.110;2024-03-02T13:55:12;14.80;;;7.80;;
15132;SDS011;7667;51.232;17.110;2024-03-02T13:57:40;13.87;;;8.50;;
15132;SDS011;7667;51.232;17.110;2024-03-02T14:00:08;14.27;;;7.87;;
15132;SDS011;7667;51.232;17.110;2024-03-02T14:02:39;12.77;;;8.13;;
15132;SDS011;7667;51.232;17.110;2024-03-02T14:05:07;12.93;;;7.60;;
15132;SDS011;7667;51.232;17.110;2024-03-02T14:07:38;11.00;;;7.57;;
15132;SDS011;7667;51.232;17.110;2024-03-02T14:10:07;11.57;;;7.43;;
15132;SDS011;7667;51.232;17.110;2024-03-02T14:12:36;13.07;;;7.77;;
15132;SDS011;7667;51.232;17.110;2024-03-02T14:15:04;14.00;;;8.03;;
15132;SDS011;7667;51.232;17.110;2024-03-02T14:17:33;15.77;;;8.90;;
15132;SDS011;7667;51.232;17.110;2024-03-02T14:20:01;17.87;;;9.87;;
15132;SDS011;7667;51.232;17.110;2024-03-02T14:22:31;17.67;;;9.43;;
15132;SDS011;7667;51.232;17.110;2024-03-02T14:25:00;15.43;;;8.73;;
15132;SDS011;7667;51.232;17.110;2024-03-02T14:27:28;17.63;;;9.10;;
15132;SDS011;7667;51.232;17.110;2024-03-02T14:30:16;14.67;;;8.53;;
15132;SDS011;7667;51.232;17.110;2024-03-02T14:32:44;12.53;;;7.57;;
15132;SDS011;7667;51.232;17.110;2024-03-02T14:35:12;12.27;;;6.87;;
15132;SDS011;7667;51.232;17.110;2024-03-02T14:37:40;10.33;;;6.53;;
15132;SDS011;7667;51.232;17.110;2024-03-02T14:40:08;11.40;;;7.60;;
15132;SDS011;7667;51.232;17.110;2024-03-02T14:42:37;10.07;;;6.73;;